LLBGLCLK

Guest
Details From LLBG - Tel Aviv Ben Gurion
To LCLK - Larnaca
Flight Number -
Tags decoded
Created
Modified
Stats Distance 233 nm / 432 km
Max Altitude 0 ft / 0 m
Waypoints 8
Social Downloads 1
Likes 0
Share VATSIM

Download

Looking for another format? Having issues loading an existing format? Contact us
Advertisement - Login to hide

Notes

Requested: LLBG MERVA UB17 LCA UM978 SOBOS UR78 RUDER LCLK

Route

LLBG MERVA UB17 LCA UM978 RUDER LCLK

ID Type Via Altitude Latitude Longitude Leg Dist Tot Dist Heading (true) Name
O LLBG APT - 0 ft / 0 m 32.01147˚ 34.88506˚ - 0 nm - Tel Aviv Ben Gurion
MERVA FIX - 0 ft / 0 m 32.78278˚ 34.54417˚ 49 nm 49 nm 340° / 339° -
TIROS FIX UB17 (AWY-HI) 0 ft / 0 m 33.30000˚ 34.31667˚ 33 nm 82 nm 340° / 340° -
VELOX FIX UB17 (AWY-HI) 0 ft / 0 m 33.81667˚ 34.08333˚ 33 nm 115 nm 339° / 339° -
LCA VOR UB17 (AWY-HI) 0 ft / 0 m 34.87333˚ 33.62667˚ 67 nm 183 nm 340° / 340° LARNACA VOR-DME
SOBOS FIX UM978 (AWY-HI) 0 ft / 0 m 34.92500˚ 33.94500˚ 15 nm 199 nm 79° / 79° -
RUDER FIX UM978 (AWY-HI) 0 ft / 0 m 34.95333˚ 34.12500˚ 9 nm 208 nm 79° / 79° -
O LCLK APT - 0 ft / 0 m 34.87512˚ 33.62483˚ 25 nm 233 nm 259° / 259° Larnaca

Altitude Profile

Advertisement - Login to hide

Weather


0- 5 10 15 20 25 30 35+ Temperature / ° C

Clouds and Precipitation
Forecast for 2017-12-13 00:00 UTC. Updated an hour ago

Ground ~20,000 ft ~40,000 ft Winds

LLBG

Details ICAO LLBG (TLV)
Name Tel Aviv Ben Gurion
Region Israel
Timezone Asia/Jerusalem (UTC+2.0)
Stats Elevation 135 ft / 41 m (AMSL)
Location 32.011468° 34.885059°
Runways 3
Magnetic Variation 4.686° E

METAR

LLBG 122020Z 11004KT CAVOK 14/07 Q1018 NOSIG RMK OBS 1300FT-TEMP 25C

Decode

TAF

TAF LLBG 121704Z 1218/1318 17007KT CAVOK PROB40 1302/1307 6000 SCT012 BECMG 1307/1309 27010KT 9999 SCT025 TX22/1312Z TN14/1304Z

Decode

Departure Runways

ID Width Length Bearing (true) Bearing (mag) Surface Threshold Offset Overrun Length
03 148 ft / 45 m 5,792 ft / 1,765 m 28.88° 24.19° Asphalt 0 ft / 0 m 216 ft / 66 m
08 148 ft / 45 m 12,017 ft / 3,663 m 79.72° 75.03° Asphalt 0 ft / 0 m 295 ft / 90 m
12 148 ft / 45 m 10,279 ft / 3,133 m 121.54° 116.85° Asphalt 0 ft / 0 m 328 ft / 100 m
21 148 ft / 45 m 5,792 ft / 1,765 m 208.88° 204.19° Asphalt 0 ft / 0 m 216 ft / 66 m
26 148 ft / 45 m 12,017 ft / 3,663 m 259.74° 255.05° Asphalt 1,969 ft / 600 m 205 ft / 62 m
30 148 ft / 45 m 10,279 ft / 3,133 m 301.56° 296.87° Asphalt 246 ft / 75 m 347 ft / 106 m

LCLK

Details ICAO LCLK (LCA)
Name Larnaca
Region Cyprus
Timezone Asia/Nicosia (UTC+2.0)
Stats Elevation 8 ft / 2 m (AMSL)
Location 34.875115° 33.624832°
Runways 1
Magnetic Variation 4.990° E

METAR

LCLK 122000Z 32006KT CAVOK 15/09 Q1019 NOSIG

Decode

TAF

TAF LCLK 121730Z 1218/1318 33009KT 9999 FEW030= TAF LCPH 121730Z 1218/1318 02007KT 9999 FEW030 BECMG 1308/1311 32015KT BECMG 1316/1318 02007KT

Decode

Destination Runways

ID Width Length Bearing (true) Bearing (mag) Surface Threshold Offset Overrun Length
04 148 ft / 45 m 9,771 ft / 2,978 m 45.15° 40.16° Asphalt 0 ft / 0 m 210 ft / 64 m
22 148 ft / 45 m 9,771 ft / 2,978 m 225.17° 220.18° Asphalt 575 ft / 175 m 0 ft / 0 m

Approach Navaids

Runway Type Ident Frequency Range Bearing (true) Bearing (mag) Slope Elevation
22 Localiser ILC 110.30 MHz 18 nm / 33 km 225.17° 220.18° - 8 ft / 2 m (AMSL)
22 Glidescope ILC 110.30 MHz 10 nm / 19 km 225.16° 220.17° 2.75° 24 ft / 7 m (AMSL)
22 DME ILC 110.30 MHz 18 nm / 33 km - - - 20 ft / 6 m (AMSL)

Popular Alternatives